createdAt,value
2017-05-02T00:02:22.543Z,5.60
2017-05-02T00:04:49.520Z,7.30
2017-05-02T00:07:16.541Z,8.32
2017-05-02T00:09:43.464Z,6.40
2017-05-02T00:12:10.479Z,5.88
2017-05-02T00:14:39.171Z,5.66
2017-05-02T00:17:06.890Z,8.34
2017-05-02T00:19:33.830Z,7.24
2017-05-02T00:22:00.775Z,8.88
2017-05-02T00:24:27.820Z,5.20
2017-05-02T00:26:54.758Z,4.70
2017-05-02T00:29:21.698Z,4.90
2017-05-02T00:31:48.701Z,7.40
2017-05-02T00:34:15.642Z,5.34
2017-05-02T00:36:42.593Z,8.26
2017-05-02T00:39:09.579Z,6.70
2017-05-02T00:41:36.515Z,8.32
2017-05-02T00:44:04.404Z,6.64
2017-05-02T00:46:31.381Z,6.88
2017-05-02T00:48:58.477Z,9.74
2017-05-02T00:51:25.418Z,6.58
2017-05-02T00:53:53.079Z,6.96
2017-05-02T00:56:20.782Z,6.52
2017-05-02T00:58:47.833Z,6.14
2017-05-02T01:01:15.554Z,6.32
2017-05-02T01:03:42.568Z,6.00
2017-05-02T01:06:09.530Z,6.04
2017-05-02T01:08:36.602Z,7.16
2017-05-02T01:11:03.692Z,5.40
2017-05-02T01:13:30.646Z,4.26
2017-05-02T01:15:57.585Z,4.32
2017-05-02T01:18:24.544Z,3.60
2017-05-02T01:20:51.535Z,5.06
2017-05-02T01:23:18.500Z,5.92
2017-05-02T01:25:45.530Z,6.00
2017-05-02T01:28:12.497Z,4.54
2017-05-02T01:30:39.443Z,4.74
2017-05-02T01:33:06.414Z,4.02
2017-05-02T01:35:33.353Z,6.96
2017-05-02T01:38:00.677Z,4.98
2017-05-02T01:40:27.771Z,6.00
2017-05-02T01:42:54.832Z,4.22
2017-05-02T01:45:21.423Z,4.72
2017-05-02T01:47:48.382Z,3.78
2017-05-02T01:50:15.330Z,6.62
2017-05-02T01:52:42.319Z,8.44
2017-05-02T01:55:09.967Z,3.52
2017-05-02T01:57:36.893Z,3.08
2017-05-02T02:00:03.918Z,3.50
2017-05-02T02:02:30.874Z,3.76
2017-05-02T02:04:57.842Z,4.66
2017-05-02T02:07:24.842Z,4.76
2017-05-02T02:09:51.881Z,4.32
2017-05-02T02:12:19.571Z,4.52
2017-05-02T02:14:46.505Z,3.00
2017-05-02T02:17:13.476Z,3.90
2017-05-02T02:19:40.427Z,3.48
2017-05-02T02:22:07.370Z,4.48
2017-05-02T02:24:34.263Z,4.72
2017-05-02T02:27:01.948Z,3.00
2017-05-02T02:29:28.886Z,4.60
2017-05-02T02:31:55.841Z,4.10
2017-05-02T02:34:22.423Z,6.20
2017-05-02T02:36:49.352Z,6.00
2017-05-02T02:39:15.881Z,5.60
2017-05-02T02:41:42.841Z,4.02
2017-05-02T02:44:09.773Z,4.02
2017-05-02T02:46:36.706Z,4.08
2017-05-02T02:49:03.702Z,5.56
2017-05-02T02:51:30.612Z,4.54
2017-05-02T02:53:57.581Z,4.60
2017-05-02T02:56:24.496Z,4.58
2017-05-02T02:58:51.461Z,4.44
2017-05-02T03:01:18.411Z,7.08
2017-05-02T03:03:45.374Z,6.08
2017-05-02T03:06:12.426Z,5.02
2017-05-02T03:08:39.362Z,7.56
2017-05-02T03:11:06.275Z,7.76
2017-05-02T03:13:33.228Z,6.02
2017-05-02T03:16:00.126Z,5.94
2017-05-02T03:18:27.760Z,5.58
2017-05-02T03:20:54.694Z,5.62
2017-05-02T03:23:21.650Z,4.90
2017-05-02T03:25:48.560Z,6.30
2017-05-02T03:28:15.514Z,6.62
2017-05-02T03:30:42.463Z,5.80
2017-05-02T03:33:09.421Z,7.26
2017-05-02T03:35:36.406Z,6.24
2017-05-02T03:38:04.067Z,11.10
2017-05-02T03:40:31.750Z,7.70
2017-05-02T03:42:58.668Z,9.88
2017-05-02T03:45:25.602Z,7.60
2017-05-02T03:47:52.578Z,6.76
2017-05-02T03:50:20.285Z,12.90
2017-05-02T03:52:47.216Z,7.94
2017-05-02T03:55:14.192Z,7.92
2017-05-02T03:57:42.099Z,8.58
2017-05-02T04:00:10.037Z,9.24
2017-05-02T04:02:36.980Z,7.10
2017-05-02T04:05:05.799Z,7.80
2017-05-02T04:07:33.461Z,12.84
2017-05-02T04:10:01.205Z,8.82
2017-05-02T04:12:28.148Z,8.26
2017-05-02T04:14:55.161Z,8.44
2017-05-02T04:17:22.943Z,8.92
2017-05-02T04:19:49.867Z,9.92
2017-05-02T04:22:16.941Z,8.44
2017-05-02T04:24:43.893Z,7.20
2017-05-02T04:27:11.191Z,9.18
2017-05-02T04:29:38.895Z,9.76
2017-05-02T04:32:05.846Z,13.44
2017-05-02T04:34:33.532Z,10.44
2017-05-02T04:37:00.516Z,8.72
2017-05-02T04:39:28.303Z,8.38
2017-05-02T04:41:55.362Z,7.36
2017-05-02T04:44:22.312Z,7.84
2017-05-02T04:46:49.261Z,8.68
2017-05-02T04:49:16.174Z,8.22
2017-05-02T04:51:43.125Z,8.92
2017-05-02T04:54:10.081Z,10.20
2017-05-02T04:56:36.981Z,8.84
2017-05-02T04:59:03.904Z,10.24
2017-05-02T05:01:30.882Z,8.52
2017-05-02T05:03:58.671Z,9.64
2017-05-02T05:06:25.710Z,10.56
2017-05-02T05:08:52.678Z,13.98
2017-05-02T05:11:19.632Z,11.10
2017-05-02T05:13:46.309Z,9.22
2017-05-02T05:16:13.252Z,12.22
2017-05-02T05:18:40.226Z,13.12
2017-05-02T05:21:07.166Z,10.90
2017-05-02T05:23:34.856Z,12.20
2017-05-02T05:26:02.957Z,13.74
2017-05-02T05:28:29.880Z,13.02
2017-05-02T05:43:56.921Z,16.56
2017-05-02T05:46:23.833Z,11.30
2017-05-02T05:48:51.538Z,10.88
2017-05-02T05:51:18.475Z,13.16
2017-05-02T05:53:45.435Z,11.08
2017-05-02T05:56:12.366Z,16.44
2017-05-02T05:58:39.335Z,10.90
2017-05-02T06:01:06.277Z,13.52
2017-05-02T06:03:33.228Z,11.24
2017-05-02T06:06:00.208Z,11.48
2017-05-02T06:08:42.808Z,12.74
2017-05-02T06:11:09.724Z,9.68
2017-05-02T06:13:37.154Z,9.76
2017-05-02T06:16:04.092Z,8.88
2017-05-02T06:18:31.011Z,9.46
2017-05-02T06:20:57.918Z,8.24
2017-05-02T06:23:24.878Z,12.06
2017-05-02T06:25:51.809Z,14.50
2017-05-02T06:28:19.341Z,8.22
2017-05-02T06:30:46.309Z,10.98
2017-05-02T06:33:13.251Z,9.48
2017-05-02T06:35:40.230Z,9.52
2017-05-02T06:38:07.166Z,9.42
2017-05-02T06:40:34.113Z,7.44
2017-05-02T06:43:01.022Z,12.90
2017-05-02T06:45:27.947Z,8.50
2017-05-02T06:47:54.927Z,10.78
2017-05-02T06:50:21.908Z,8.76
2017-05-02T06:52:48.877Z,6.76
2017-05-02T06:55:16.541Z,9.56
2017-05-02T06:57:45.009Z,8.84
2017-05-02T07:00:12.610Z,5.70
2017-05-02T07:02:39.567Z,8.38
2017-05-02T07:05:07.315Z,8.12
2017-05-02T07:07:34.226Z,11.08
2017-05-02T07:10:01.922Z,9.28
2017-05-02T07:12:28.851Z,8.34
2017-05-02T07:14:56.511Z,9.44
2017-05-02T07:17:24.341Z,8.08
2017-05-02T07:19:51.273Z,7.66
2017-05-02T07:22:18.227Z,10.20
2017-05-02T07:24:45.943Z,9.66
2017-05-02T07:27:12.855Z,10.40
2017-05-02T07:29:39.880Z,7.72
2017-05-02T07:32:06.872Z,9.62
2017-05-02T07:34:33.866Z,8.10
2017-05-02T07:37:00.781Z,10.74
2017-05-02T07:39:27.731Z,11.10
2017-05-02T07:41:55.651Z,12.30
2017-05-02T07:44:22.586Z,12.50
2017-05-02T07:46:49.526Z,11.44
2017-05-02T07:49:16.451Z,17.18
2017-05-02T07:51:43.490Z,16.12
2017-05-02T07:54:10.463Z,9.92
2017-05-02T07:56:37.452Z,8.68
2017-05-02T07:59:05.353Z,5.98
2017-05-02T08:01:33.015Z,6.86
2017-05-02T08:04:00.701Z,9.74
2017-05-02T08:06:27.651Z,7.34
2017-05-02T08:08:54.739Z,11.08
2017-05-02T08:11:22.458Z,7.26
2017-05-02T08:13:49.393Z,6.34
2017-05-02T08:16:16.323Z,9.66
2017-05-02T08:18:43.323Z,9.54
2017-05-02T08:21:10.280Z,15.02
2017-05-02T08:23:37.202Z,9.20
2017-05-02T08:26:04.142Z,9.10
2017-05-02T08:28:31.095Z,9.90
2017-05-02T08:30:58.082Z,9.16
2017-05-02T08:33:26.211Z,10.02
2017-05-02T08:35:53.152Z,8.82
2017-05-02T08:38:20.090Z,13.44
2017-05-02T08:40:47.051Z,10.72
2017-05-02T08:43:13.953Z,11.54
2017-05-02T08:45:40.911Z,12.62
2017-05-02T08:48:08.252Z,13.18
2017-05-02T08:50:35.175Z,12.54
2017-05-02T08:53:02.179Z,12.66
2017-05-02T08:55:29.171Z,13.30
2017-05-02T08:57:56.880Z,13.76
2017-05-02T09:00:23.830Z,11.68
2017-05-02T09:02:51.430Z,14.62
2017-05-02T09:05:18.383Z,15.36
2017-05-02T09:07:46.072Z,16.12
2017-05-02T09:10:13.041Z,17.08
2017-05-02T09:12:39.993Z,15.00
2017-05-02T09:15:07.027Z,15.06
2017-05-02T09:17:34.038Z,14.22
2017-05-02T09:20:01.804Z,12.40
2017-05-02T09:22:29.517Z,15.36
2017-05-02T09:24:56.432Z,17.30
2017-05-02T09:27:23.785Z,15.46
2017-05-02T09:29:50.788Z,16.28
2017-05-02T09:32:17.770Z,13.78
2017-05-02T09:34:45.437Z,15.08
2017-05-02T09:37:12.671Z,14.58
2017-05-02T09:39:39.646Z,13.88
2017-05-02T09:42:06.768Z,14.14
2017-05-02T09:44:33.731Z,14.46
2017-05-02T09:47:01.433Z,12.34
2017-05-02T09:49:28.392Z,12.14
2017-05-02T09:51:55.342Z,13.92
2017-05-02T09:54:23.278Z,14.52
2017-05-02T09:56:50.744Z,13.66
2017-05-02T09:59:18.461Z,12.28
2017-05-02T10:01:45.469Z,14.48
2017-05-02T10:04:12.428Z,14.00
2017-05-02T10:06:39.326Z,14.08
2017-05-02T10:09:06.290Z,14.04
2017-05-02T10:11:33.331Z,20.92
2017-05-02T10:13:59.930Z,17.00
2017-05-02T10:16:28.227Z,15.68
2017-05-02T10:18:56.043Z,12.80
2017-05-02T10:21:23.488Z,14.04
2017-05-02T10:23:50.474Z,13.58
2017-05-02T10:26:17.413Z,14.02
2017-05-02T10:28:44.344Z,11.60
2017-05-02T10:31:11.318Z,11.46
2017-05-02T10:33:38.966Z,12.72
2017-05-02T10:36:05.895Z,10.36
2017-05-02T10:38:32.843Z,11.94
2017-05-02T10:40:59.797Z,11.68
2017-05-02T10:43:26.768Z,15.16
2017-05-02T10:45:53.750Z,11.38
2017-05-02T10:48:20.735Z,15.34
2017-05-02T10:50:47.731Z,12.28
2017-05-02T10:53:14.656Z,13.26
2017-05-02T10:55:42.331Z,13.18
2017-05-02T10:58:10.005Z,12.98
2017-05-02T11:00:37.367Z,18.70
2017-05-02T11:03:04.330Z,12.22
2017-05-02T11:05:31.253Z,13.00
2017-05-02T11:07:58.196Z,14.58
2017-05-02T11:10:25.182Z,14.44
2017-05-02T11:12:52.216Z,15.32
2017-05-02T11:15:19.134Z,9.74
2017-05-02T11:17:46.132Z,13.06
2017-05-02T11:20:13.071Z,14.80
2017-05-02T11:22:40.007Z,16.18
2017-05-02T11:25:06.966Z,12.36
2017-05-02T11:27:33.909Z,16.32
2017-05-02T11:30:00.929Z,11.04
2017-05-02T11:32:28.259Z,6.42
2017-05-02T11:34:56.702Z,14.24
2017-05-02T11:37:23.635Z,17.62
2017-05-02T11:39:50.636Z,16.46
2017-05-02T11:42:17.607Z,19.80
2017-05-02T11:44:44.590Z,18.26
2017-05-02T11:47:11.597Z,19.84
2017-05-02T11:49:38.534Z,19.48
2017-05-02T11:52:20.503Z,18.58
2017-05-02T11:54:48.181Z,19.36
2017-05-02T11:57:15.833Z,25.38
2017-05-02T11:59:43.622Z,22.08
2017-05-02T12:02:10.578Z,25.46
2017-05-02T12:04:37.549Z,22.10
2017-05-02T12:07:05.167Z,26.52
2017-05-02T12:09:32.867Z,25.68
2017-05-02T12:11:59.818Z,24.80
2017-05-02T12:14:26.743Z,25.14
2017-05-02T12:16:53.698Z,25.16
2017-05-02T12:19:20.699Z,30.82
2017-05-02T12:21:48.369Z,33.56
2017-05-02T12:24:16.060Z,26.96
2017-05-02T12:26:42.961Z,29.20
2017-05-02T12:29:09.905Z,29.20
2017-05-02T12:31:36.972Z,31.36
2017-05-02T12:34:06.728Z,29.66
2017-05-02T12:36:33.673Z,28.16
2017-05-02T12:39:00.680Z,31.90
2017-05-02T12:41:28.363Z,28.24
2017-05-02T12:43:55.352Z,30.86
2017-05-02T12:46:22.341Z,30.50
2017-05-02T12:48:49.806Z,41.46
2017-05-02T12:51:16.748Z,32.42
2017-05-02T12:53:43.697Z,29.60
2017-05-02T12:56:10.697Z,28.82
2017-05-02T12:58:37.604Z,34.32
2017-05-02T13:01:05.397Z,29.98
2017-05-02T13:03:32.360Z,35.56
2017-05-02T13:05:59.307Z,30.00
2017-05-02T13:08:26.292Z,34.22
2017-05-02T13:10:53.645Z,37.14
2017-05-02T13:13:20.251Z,39.50
2017-05-02T13:15:47.243Z,34.52
2017-05-02T13:18:14.334Z,37.24
2017-05-02T13:20:41.283Z,40.32
2017-05-02T13:23:08.572Z,37.94
2017-05-02T13:25:36.277Z,38.42
2017-05-02T13:28:03.817Z,38.18
2017-05-02T13:30:30.777Z,38.82
2017-05-02T13:32:58.344Z,40.08
2017-05-02T13:35:25.324Z,41.62
2017-05-02T13:37:52.236Z,42.92
2017-05-02T13:40:19.194Z,38.96
2017-05-02T13:42:46.131Z,40.98
2017-05-02T13:45:13.060Z,42.14
2017-05-02T13:47:40.043Z,45.38
2017-05-02T13:50:07.209Z,38.28
2017-05-02T13:52:34.952Z,39.92
2017-05-02T13:55:01.884Z,44.20
2017-05-02T13:57:28.892Z,43.12
2017-05-02T13:59:55.849Z,41.12
2017-05-02T14:02:22.790Z,44.20
2017-05-02T14:04:49.803Z,41.94
2017-05-02T14:07:16.742Z,43.08
2017-05-02T14:09:43.724Z,42.08
2017-05-02T14:12:10.830Z,48.00
2017-05-02T14:14:37.803Z,43.88
2017-05-02T14:17:05.711Z,12.88
2017-05-02T14:19:33.604Z,24.28
2017-05-02T14:22:00.557Z,35.52
2017-05-02T14:24:27.542Z,26.04
2017-05-02T14:26:55.245Z,28.84
2017-05-02T14:29:22.193Z,25.26
2017-05-02T14:31:49.164Z,30.84
2017-05-02T14:34:16.198Z,33.94
2017-05-02T14:36:43.200Z,36.36
2017-05-02T14:39:10.106Z,37.86
2017-05-02T14:41:37.090Z,34.20
2017-05-02T14:44:04.051Z,38.18
2017-05-02T14:46:31.036Z,40.64
2017-05-02T14:48:58.007Z,42.26
2017-05-02T14:51:24.928Z,45.16
2017-05-02T14:53:52.075Z,44.26
2017-05-02T14:56:19.907Z,38.22
2017-05-02T14:58:46.843Z,46.38
2017-05-02T15:01:13.776Z,36.92
2017-05-02T15:03:41.461Z,40.02
2017-05-02T15:06:08.375Z,41.64
2017-05-02T15:08:36.063Z,41.10
2017-05-02T15:11:03.856Z,42.64
2017-05-02T15:13:30.829Z,46.32
2017-05-02T15:15:57.751Z,42.48
2017-05-02T15:18:24.718Z,43.06
2017-05-02T15:20:51.838Z,43.00
2017-05-02T15:23:18.791Z,43.32
2017-05-02T15:25:45.761Z,48.18
2017-05-02T15:28:12.752Z,43.88
2017-05-02T15:30:39.327Z,45.64
2017-05-02T15:33:06.317Z,47.54
2017-05-02T15:35:34.087Z,41.58
2017-05-02T15:38:16.763Z,43.74
2017-05-02T15:50:28.819Z,43.50
2017-05-02T15:52:56.790Z,43.76
2017-05-02T15:55:23.750Z,43.40
2017-05-02T15:57:50.724Z,41.22
2017-05-02T16:00:18.469Z,40.68
2017-05-02T16:02:45.476Z,44.48
2017-05-02T16:05:12.428Z,45.56
2017-05-02T16:07:39.508Z,40.02
2017-05-02T16:10:06.524Z,42.52
2017-05-02T16:12:33.492Z,44.40
2017-05-02T16:15:00.468Z,42.88
2017-05-02T16:17:28.379Z,40.32
2017-05-02T16:19:55.342Z,40.62
2017-05-02T16:22:22.306Z,37.96
2017-05-02T16:24:49.335Z,44.52
2017-05-02T16:27:16.307Z,43.34
2017-05-02T16:29:43.318Z,43.58
2017-05-02T16:32:11.023Z,39.30
2017-05-02T16:34:38.896Z,42.06
2017-05-02T16:37:06.681Z,41.12
2017-05-02T16:39:33.225Z,39.52
2017-05-02T16:42:00.168Z,39.46
2017-05-02T16:44:27.150Z,42.58
2017-05-02T16:46:54.099Z,41.40
2017-05-02T16:49:21.068Z,39.12
2017-05-02T16:51:48.235Z,37.26
2017-05-02T16:54:15.219Z,38.78
2017-05-02T16:56:42.238Z,40.60
2017-05-02T16:59:09.263Z,41.96
2017-05-02T17:01:36.245Z,42.90
2017-05-02T17:04:04.003Z,39.96
2017-05-02T17:06:31.675Z,42.36
2017-05-02T17:08:59.383Z,41.32
2017-05-02T17:11:26.421Z,37.38
2017-05-02T17:13:53.475Z,42.66
2017-05-02T17:16:20.417Z,41.26
2017-05-02T17:18:47.400Z,38.60
2017-05-02T17:21:14.377Z,39.86
2017-05-02T17:23:41.493Z,37.88
2017-05-02T17:26:08.457Z,25.48
2017-05-02T17:28:36.173Z,26.78
2017-05-02T17:31:03.116Z,26.32
2017-05-02T17:33:31.012Z,26.96
2017-05-02T17:35:58.018Z,28.50
2017-05-02T17:38:24.983Z,32.60
2017-05-02T17:40:51.961Z,38.48
2017-05-02T17:43:18.949Z,33.66
2017-05-02T17:45:45.938Z,37.70
2017-05-02T17:48:12.884Z,33.78
2017-05-02T17:50:39.836Z,35.78
2017-05-02T17:53:06.803Z,40.00
2017-05-02T17:55:33.787Z,39.12
2017-05-02T17:58:00.823Z,36.02
2017-05-02T18:00:27.404Z,38.64
2017-05-02T18:02:54.324Z,34.86
2017-05-02T18:05:21.298Z,38.88
2017-05-02T18:07:48.253Z,35.62
2017-05-02T18:10:15.256Z,36.82
2017-05-02T18:12:42.573Z,249.30
2017-05-02T18:15:09.554Z,351.00
2017-05-02T18:17:36.659Z,71.94
2017-05-02T18:20:03.620Z,40.44
2017-05-02T18:22:31.321Z,37.64
2017-05-02T18:28:01.444Z,36.72
2017-05-02T18:30:28.425Z,38.48
2017-05-02T18:32:55.433Z,39.72
2017-05-02T18:35:22.437Z,42.66
2017-05-02T18:37:49.425Z,39.38
2017-05-02T18:40:16.423Z,39.04
2017-05-02T18:42:43.419Z,34.06
2017-05-02T18:45:10.420Z,40.20
2017-05-02T18:47:37.393Z,37.18
2017-05-02T18:50:08.153Z,38.52
2017-05-02T18:52:35.499Z,42.46
2017-05-02T18:55:03.254Z,41.34
2017-05-02T18:57:31.262Z,38.30
2017-05-02T18:59:58.223Z,38.70
2017-05-02T19:02:25.824Z,36.20
2017-05-02T19:04:52.795Z,36.22
2017-05-02T19:07:20.535Z,38.02
2017-05-02T19:09:47.497Z,34.74
2017-05-02T19:12:15.203Z,40.98
2017-05-02T19:14:42.203Z,35.82
2017-05-02T19:17:09.914Z,38.02
2017-05-02T19:19:36.882Z,36.66
2017-05-02T19:22:03.870Z,38.04
2017-05-02T19:24:31.542Z,29.64
2017-05-02T19:26:58.974Z,28.70
2017-05-02T19:29:27.901Z,24.60
2017-05-02T19:31:55.252Z,24.80
2017-05-02T19:34:22.043Z,23.64
2017-05-02T19:36:49.008Z,25.22
2017-05-02T19:39:16.862Z,22.90
2017-05-02T19:41:45.065Z,27.58
2017-05-02T19:44:13.008Z,25.72
2017-05-02T19:46:40.315Z,22.42
2017-05-02T19:49:19.443Z,26.34
2017-05-02T19:51:47.121Z,24.82
2017-05-02T19:54:15.178Z,29.70
2017-05-02T19:56:42.182Z,28.44
2017-05-02T19:59:09.159Z,22.68
2017-05-02T20:01:36.871Z,24.56
2017-05-02T20:04:03.778Z,27.04
2017-05-02T20:06:30.942Z,24.34
2017-05-02T20:08:57.853Z,29.26
2017-05-02T20:11:25.562Z,23.90
2017-05-02T20:13:52.614Z,27.60
2017-05-02T20:16:19.573Z,24.36
2017-05-02T20:18:46.587Z,23.34
2017-05-02T20:21:13.557Z,26.18
2017-05-02T20:23:40.721Z,37.24
2017-05-02T20:26:07.998Z,26.10
2017-05-02T20:28:35.866Z,25.66
2017-05-02T20:31:02.848Z,28.02
2017-05-02T20:33:29.887Z,27.88
2017-05-02T20:35:56.908Z,29.52
2017-05-02T20:38:24.190Z,28.40
2017-05-02T20:40:51.420Z,26.04
2017-05-02T20:43:19.111Z,27.46
2017-05-02T20:45:46.128Z,23.68
2017-05-02T20:48:13.836Z,22.76
2017-05-02T20:50:41.007Z,22.02
2017-05-02T20:53:07.997Z,23.48
2017-05-02T20:55:35.791Z,22.20
2017-05-02T20:58:02.789Z,25.08
2017-05-02T21:00:29.747Z,21.36
2017-05-02T21:02:57.456Z,24.16
2017-05-02T21:05:24.963Z,23.82
2017-05-02T21:07:52.102Z,21.60
2017-05-02T21:10:19.647Z,22.08
2017-05-02T21:12:46.604Z,22.52
2017-05-02T21:15:13.895Z,23.98
2017-05-02T21:17:40.553Z,19.58
2017-05-02T21:20:10.441Z,20.46
2017-05-02T21:22:38.112Z,20.08
2017-05-02T21:25:05.813Z,19.44
2017-05-02T21:27:32.833Z,19.32
2017-05-02T21:29:59.762Z,17.18
2017-05-02T21:32:27.494Z,19.80
2017-05-02T21:34:54.403Z,19.50
2017-05-02T21:37:21.403Z,19.10
2017-05-02T21:39:48.392Z,21.82
2017-05-02T21:42:15.343Z,25.92
2017-05-02T21:44:43.283Z,22.30
2017-05-02T21:47:11.050Z,18.92
2017-05-02T21:49:38.841Z,20.76
2017-05-02T21:52:05.793Z,17.58
2017-05-02T21:54:32.739Z,16.74
2017-05-02T21:56:59.770Z,16.94
2017-05-02T21:59:26.452Z,14.86
2017-05-02T22:01:53.469Z,13.92
2017-05-02T22:04:20.439Z,12.70
2017-05-02T22:06:47.401Z,13.34
2017-05-02T22:09:14.386Z,16.16
2017-05-02T22:11:42.097Z,12.96
2017-05-02T22:14:09.125Z,13.46
2017-05-02T22:16:36.582Z,15.28
2017-05-02T22:19:03.527Z,14.98
2017-05-02T22:21:30.530Z,12.50
2017-05-02T22:23:59.023Z,16.00
2017-05-02T22:26:26.739Z,20.76
2017-05-02T22:28:53.692Z,15.50
2017-05-02T22:31:20.641Z,19.18
2017-05-02T22:33:48.011Z,19.46
2017-05-02T22:36:17.342Z,17.68
2017-05-02T22:38:45.381Z,15.84
2017-05-02T22:41:12.400Z,16.30
2017-05-02T22:43:40.037Z,17.62
2017-05-02T22:46:08.013Z,11.70
2017-05-02T22:48:35.312Z,12.26
2017-05-02T22:51:02.339Z,9.46
2017-05-02T22:53:29.275Z,13.06
2017-05-02T22:55:56.231Z,10.20
2017-05-02T22:58:23.169Z,7.08
2017-05-02T23:00:50.149Z,5.96
2017-05-02T23:03:17.100Z,5.72
2017-05-02T23:05:44.073Z,6.46
2017-05-02T23:08:11.003Z,6.70
2017-05-02T23:10:38.701Z,6.88
2017-05-02T23:13:05.655Z,5.82
2017-05-02T23:15:32.640Z,6.04
2017-05-02T23:18:00.609Z,7.20
2017-05-02T23:20:27.712Z,8.80
2017-05-02T23:22:54.910Z,8.78
2017-05-02T23:25:21.469Z,6.36
2017-05-02T23:27:49.200Z,6.90
2017-05-02T23:30:16.155Z,7.58
2017-05-02T23:32:43.086Z,5.12
2017-05-02T23:35:10.051Z,5.36
2017-05-02T23:37:37.056Z,7.90
2017-05-02T23:40:04.232Z,6.26
2017-05-02T23:42:31.227Z,6.74
2017-05-02T23:44:58.898Z,9.48
2017-05-02T23:47:26.564Z,12.18
2017-05-02T23:49:53.801Z,12.40
2017-05-02T23:52:21.831Z,12.26
2017-05-02T23:54:49.218Z,12.26
2017-05-02T23:57:16.200Z,11.02
2017-05-02T23:59:43.135Z,11.36
